首页
METAR-TAF:

METAR-TAF

机场 :

恩贾梅纳国际机场

恩賈梅納, 乍得

纬度: 12-08N, 经度: 015-02E, 海拔: 295米

当前天气观测

该预报发布于20分钟前的19:00 UTC
风速4节,风向南转西南,在南转西南西之间变化
温度 31°C
湿度 46%
气压 1008 hPa
能見度: 8000

METAR: FTTJ 221900Z 20004KT 200V280 8000 NSC 31/18 Q1008 NOSIG

时间: 20:20 (19:20 UTC)

预报

该预报发布于2小时和20分钟前的17:00 UTC
预报有效从22日的 18点(UTC)到 23日的 24点(UTC)
风速8节,风向东转东北
能見度: 4000
从 22日的 2000点(UTC)
风速10节,风向北转东北
能见度10公里或以上
1500米以下无云,无积雨云
短暂存在
从 23日的 05点(UTC)到 23日的 10点(UTC)
能見度: 4000
短暂存在
从 23日的 16点(UTC)到 23日的 20点(UTC)
能見度: 4000

TAF: FTTJ 221700Z 2218/2324 06008KT 4000 HZ NSC FM222000 02010KT CAVOK TEMPO 2305/2310 4000 HZ TEMPO 2316/2320 4000 HZ

超过4000个机场的气象观测和天气预报(METAR&TAF报告)。

可查询的气象台以黄色和红色小点在地图上表示。

将鼠标移到小点上方,可查看气象台名称。

然后点击查看天气观测和预报。

如需切换地图:点击带黑十字的绿色按钮放大地图;点击带横线的绿色按钮缩小地图;或者点击绿色箭头查看邻近地区的地图。


METAR-TAF: